Time;durP1;ratioP1;P1;durP2;ratioP2;P2;SDS_P1;SDS_P2;PMS_P1;PMS_P2;Temp;Humidity;BMP_temperature;BMP_pressure;BME280_temperature;BME280_humidity;BME280_pressure;Samples;Min_cycle;Max_cycle;Signal;HPM_P1;HPM_P2
2021/03/27 00:01:33;;;;;;;4.43;2.53;;;;;;;6.19;78.15;101336.47;5096720;28;20024;-42
2021/03/27 00:04:16;;;;;;;3.85;3.08;;;;;;;6.09;78.89;101330.59;5097495;28;20021;-42
2021/03/27 00:07:18;;;;;;;3.20;2.53;;;;;;;6.05;78.75;101324.78;5096873;28;20527;-41
2021/03/27 00:09:54;;;;;;;3.78;2.47;;;;;;;6.05;78.76;101331.97;5095275;28;20388;-41
2021/03/27 00:12:31;;;;;;;4.00;2.40;;;;;;;6.07;78.80;101329.97;5096842;28;20060;-42
2021/03/27 00:15:20;;;;;;;3.70;2.65;;;;;;;5.99;79.16;101330.06;5097024;28;20035;-41
2021/03/27 00:17:52;;;;;;;4.43;3.10;;;;;;;5.97;79.29;101324.91;5096402;28;20119;-41
2021/03/27 00:20:26;;;;;;;3.20;2.45;;;;;;;5.90;80.19;101332.84;5096913;28;20028;-41
2021/03/27 00:23:00;;;;;;;5.63;2.63;;;;;;;5.85;80.26;101337.91;5096891;28;20024;-41
2021/03/27 00:25:32;;;;;;;7.22;3.08;;;;;;;5.86;79.22;101333.41;5097341;28;20028;-41
2021/03/27 00:28:03;;;;;;;4.85;3.03;;;;;;;5.90;80.50;101332.84;5097176;28;20047;-41
2021/03/27 00:30:44;;;;;;;7.15;3.20;;;;;;;5.94;80.09;101336.00;5096660;28;20028;-41
2021/03/27 00:33:11;;;;;;;6.32;3.10;;;;;;;5.94;80.32;101334.13;5097192;28;20113;-41
2021/03/27 00:35:52;;;;;;;4.28;3.08;;;;;;;5.91;81.40;101325.63;5096788;28;20024;-42
2021/03/27 00:38:21;;;;;;;7.20;3.50;;;;;;;5.87;80.52;101321.66;5096865;28;20032;-41
2021/03/27 00:40:49;;;;;;;4.60;4.13;;;;;;;5.87;80.52;101322.47;5096149;28;20047;-41
2021/03/27 00:43:22;;;;;;;6.75;4.50;;;;;;;5.82;81.08;101332.94;5096197;28;20032;-41
2021/03/27 00:45:54;;;;;;;5.40;4.53;;;;;;;5.82;80.96;101340.16;5095791;28;20102;-41
2021/03/27 00:48:33;;;;;;;7.50;5.03;;;;;;;5.80;81.06;101334.97;5096163;28;20032;-41
2021/03/27 00:51:05;;;;;;;7.57;4.75;;;;;;;5.72;80.77;101336.94;5095566;28;20024;-42
2021/03/27 00:53:48;;;;;;;8.63;5.43;;;;;;;5.75;81.46;101337.38;5095841;28;20093;-41
2021/03/27 00:56:21;;;;;;;8.63;5.53;;;;;;;5.73;81.92;101339.44;5095972;28;20055;-41
2021/03/27 00:58:58;;;;;;;6.82;4.85;;;;;;;5.76;81.56;101344.44;5095935;28;20028;-41
2021/03/27 01:01:26;;;;;;;6.70;4.57;;;;;;;5.78;81.70;101331.66;5096435;28;20148;-42
2021/03/27 01:03:59;;;;;;;6.13;4.78;;;;;;;5.74;81.80;101343.78;5095469;28;20020;-41
2021/03/27 01:06:34;;;;;;;5.75;4.53;;;;;;;5.68;82.01;101341.84;5096225;28;20093;-41
2021/03/27 01:09:02;;;;;;;5.03;4.18;;;;;;;5.71;82.13;101330.75;5095968;28;20035;-41
2021/03/27 01:11:33;;;;;;;5.85;4.03;;;;;;;5.61;82.12;101338.22;5095433;28;20438;-41
2021/03/27 01:14:02;;;;;;;4.97;3.30;;;;;;;5.59;82.39;101343.78;5095913;28;20148;-41
2021/03/27 01:16:32;;;;;;;7.57;4.07;;;;;;;5.52;82.54;101347.41;5096066;28;20024;-42
2021/03/27 01:19:09;;;;;;;6.38;3.80;;;;;;;5.48;83.34;101340.75;5096035;28;20089;-41
2021/03/27 01:21:38;;;;;;;5.22;3.42;;;;;;;5.49;82.93;101343.25;5096345;28;20052;-41
2021/03/27 01:24:15;;;;;;;6.38;3.45;;;;;;;5.53;82.67;101338.34;5095407;28;20024;-41
2021/03/27 01:26:49;;;;;;;5.85;3.10;;;;;;;5.53;82.31;101344.53;5094383;28;20052;-41
2021/03/27 01:29:24;;;;;;;8.23;2.85;;;;;;;5.54;82.91;101345.38;5095566;28;20044;-41
2021/03/27 01:32:20;;;;;;;4.40;2.58;;;;;;;5.57;82.71;101355.75;5095533;28;20027;-41
2021/03/27 01:35:06;;;;;;;4.88;2.63;;;;;;;5.52;82.94;101360.84;5096036;28;20028;-41
2021/03/27 01:38:15;;;;;;;9.23;3.10;;;;;;;5.55;82.94;101360.44;5095771;28;20024;-41
2021/03/27 01:41:15;;;;;;;5.55;2.83;;;;;;;5.61;82.63;101359.69;5052450;28;20118;-41
2021/03/27 01:43:52;;;;;;;5.60;2.70;;;;;;;5.55;83.05;101360.44;5053054;28;20048;-41
2021/03/27 01:46:30;;;;;;;5.50;2.90;;;;;;;5.52;83.16;101366.19;5052868;28;20120;-41
2021/03/27 01:49:37;;;;;;;6.65;3.42;;;;;;;5.52;82.64;101368.88;5052787;28;20033;-41
2021/03/27 01:52:15;;;;;;;7.97;3.65;;;;;;;5.46;83.11;101372.28;5044194;28;20043;-41
2021/03/27 01:55:01;;;;;;;10.82;3.78;;;;;;;5.49;82.79;101379.97;5052127;28;20501;-41
2021/03/27 01:57:38;;;;;;;6.50;3.50;;;;;;;5.48;82.81;101381.00;5052600;28;20103;-41
2021/03/27 02:00:13;;;;;;;7.22;3.78;;;;;;;5.44;82.52;101385.88;5052116;28;20028;-41
2021/03/27 02:02:59;;;;;;;6.63;3.55;;;;;;;5.48;82.60;101386.34;5051843;28;20120;-41
2021/03/27 02:05:25;;;;;;;8.07;3.33;;;;;;;5.47;82.24;101388.22;5052581;28;20031;-41
2021/03/27 02:07:55;;;;;;;9.47;3.47;;;;;;;5.49;82.44;101385.34;5051884;28;20104;-41
2021/03/27 02:11:23;;;;;;;10.77;4.22;;;;;;;5.51;81.75;101377.91;5052377;28;20057;-41
2021/03/27 02:13:59;;;;;;;12.27;4.03;;;;;;;5.43;82.27;101387.75;4962398;28;20490;-41
2021/03/27 02:16:44;;;;;;;8.87;3.57;;;;;;;5.41;82.34;101392.44;4984236;28;20077;-41
2021/03/27 02:19:21;;;;;;;8.95;3.95;;;;;;;5.39;81.99;101393.66;4976763;28;20034;-41
2021/03/27 02:21:49;;;;;;;6.47;3.50;;;;;;;5.41;82.04;101389.75;4993195;28;20140;-41
2021/03/27 02:24:32;;;;;;;8.35;4.10;;;;;;;5.41;82.21;101389.75;4992494;28;20038;-41
2021/03/27 02:27:05;;;;;;;8.25;4.10;;;;;;;5.35;81.60;101393.19;4992117;28;20058;-41
2021/03/27 02:29:57;;;;;;;9.80;4.30;;;;;;;5.30;82.11;101390.22;4992270;28;20050;-41
2021/03/27 02:32:45;;;;;;;10.63;4.18;;;;;;;5.31;81.57;101396.41;4992309;28;20085;-41
2021/03/27 02:35:30;;;;;;;9.10;4.20;;;;;;;5.24;81.79;101387.44;4992325;28;20061;-41
2021/03/27 02:37:59;;;;;;;8.40;4.60;;;;;;;5.19;81.74;101396.03;4992689;28;20109;-41
2021/03/27 02:40:33;;;;;;;10.57;3.97;;;;;;;5.23;81.60;101401.88;4992113;28;20127;-41
2021/03/27 02:43:23;;;;;;;7.38;4.40;;;;;;;5.18;81.79;101402.41;4992061;28;20039;-41
2021/03/27 02:46:12;;;;;;;8.93;3.83;;;;;;;5.19;81.92;101416.66;4988224;28;20133;-42
2021/03/27 02:48:47;;;;;;;8.00;4.05;;;;;;;5.15;81.42;101413.47;5078971;28;20488;-41
2021/03/27 02:51:23;;;;;;;7.60;3.85;;;;;;;5.13;81.91;101413.69;5094130;28;20036;-41
2021/03/27 02:54:23;;;;;;;12.15;4.03;;;;;;;5.19;82.04;101422.84;5094544;28;20031;-41
2021/03/27 02:57:04;;;;;;;10.43;4.00;;;;;;;5.21;82.65;101407.38;5094046;28;20325;-41
2021/03/27 02:59:51;;;;;;;9.60;4.07;;;;;;;5.20;82.02;101404.91;5093408;28;20024;-41
2021/03/27 03:02:35;;;;;;;9.00;4.20;;;;;;;5.19;82.20;101420.16;5093657;28;20137;-41
2021/03/27 03:05:06;;;;;;;12.35;4.90;;;;;;;5.14;82.06;101409.16;5093890;28;20055;-41
2021/03/27 03:07:35;;;;;;;11.85;4.57;;;;;;;5.15;81.80;101405.44;5093511;28;20107;-41
2021/03/27 03:10:17;;;;;;;20.48;6.55;;;;;;;5.12;82.32;101420.06;5093568;28;20051;-41
2021/03/27 03:13:02;;;;;;;9.32;4.30;;;;;;;5.09;82.29;101411.53;5093427;28;20028;-41
2021/03/27 03:15:49;;;;;;;10.88;4.68;;;;;;;5.09;82.56;101417.72;5098037;28;20028;-41
2021/03/27 03:18:26;;;;;;;10.27;4.13;;;;;;;5.08;82.09;101412.56;5100255;28;20024;-41
2021/03/27 03:21:04;;;;;;;9.52;4.38;;;;;;;5.07;82.37;101416.22;5100785;28;20090;-41
2021/03/27 03:23:33;;;;;;;12.45;4.53;;;;;;;5.05;82.46;101416.41;5100181;28;20020;-41
2021/03/27 03:26:09;;;;;;;12.55;4.13;;;;;;;5.02;82.87;101430.16;5100412;28;20077;-42
2021/03/27 03:29:08;;;;;;;8.68;4.25;;;;;;;5.04;82.47;101433.53;5100762;28;20031;-41
2021/03/27 03:31:49;;;;;;;7.97;4.07;;;;;;;5.01;82.61;101441.09;5099860;28;20107;-41
2021/03/27 03:34:19;;;;;;;13.38;4.22;;;;;;;5.02;82.95;101443.56;5100996;28;20016;-41
2021/03/27 03:36:53;;;;;;;12.65;3.92;;;;;;;5.03;82.84;101453.31;5100330;28;20024;-41
2021/03/27 03:39:46;;;;;;;16.67;4.75;;;;;;;5.04;82.98;101454.13;5100065;28;20422;-41
2021/03/27 03:42:43;;;;;;;9.27;3.00;;;;;;;5.09;82.58;101460.63;5100646;28;20027;-41
2021/03/27 03:45:14;;;;;;;10.10;3.25;;;;;;;5.08;82.46;101450.09;5100587;28;20080;-41
2021/03/27 03:48:07;;;;;;;11.18;3.85;;;;;;;5.12;81.86;101454.91;5100172;28;20023;-41
2021/03/27 03:50:45;;;;;;;14.65;3.55;;;;;;;5.10;81.86;101464.13;5100269;28;20059;-41
2021/03/27 03:53:34;;;;;;;7.45;2.95;;;;;;;5.11;82.12;101461.25;5100019;28;20028;-41
2021/03/27 03:56:24;;;;;;;10.80;4.07;;;;;;;5.12;81.79;101471.00;5099899;28;20024;-41
2021/03/27 03:58:52;;;;;;;7.90;2.60;;;;;;;5.15;80.73;101478.66;5100163;28;20119;-41
2021/03/27 04:01:26;;;;;;;9.50;2.40;;;;;;;5.14;80.29;101485.03;5100172;28;20031;-41
2021/03/27 04:04:16;;;;;;;9.80;2.60;;;;;;;5.14;80.18;101476.16;5099482;28;20537;-41
2021/03/27 04:06:44;;;;;;;8.65;2.60;;;;;;;5.11;79.27;101474.66;5099541;28;20024;-41
2021/03/27 04:09:24;;;;;;;8.65;2.65;;;;;;;5.08;79.19;101484.94;5098517;28;20384;-41
2021/03/27 04:12:08;;;;;;;4.95;1.80;;;;;;;5.06;78.57;101481.59;5099839;28;20090;-41
2021/03/27 04:14:39;;;;;;;4.72;1.77;;;;;;;5.02;78.75;101485.63;5100020;28;20028;-41
2021/03/27 04:17:11;;;;;;;3.50;1.30;;;;;;;5.04;78.69;101479.09;5100086;28;20050;-41
2021/03/27 04:19:47;;;;;;;4.78;1.55;;;;;;;5.02;77.75;101481.09;5100271;28;20032;-41
2021/03/27 04:22:15;;;;;;;6.95;2.38;;;;;;;5.02;78.41;101496.34;5100556;28;20416;-41
2021/03/27 04:24:58;;;;;;;5.00;1.98;;;;;;;5.03;78.57;101503.41;5100226;28;20414;-41
2021/03/27 04:27:30;;;;;;;7.38;1.80;;;;;;;5.07;78.78;101510.06;5097418;28;20496;-41
2021/03/27 04:30:10;;;;;;;9.73;2.10;;;;;;;5.03;78.57;101503.41;5096481;28;20059;-41
2021/03/27 04:32:52;;;;;;;7.80;2.22;;;;;;;5.05;79.08;101512.91;5096729;28;20066;-41
2021/03/27 04:35:38;;;;;;;6.38;2.45;;;;;;;5.08;78.89;101509.06;5096054;28;20024;-41
2021/03/27 04:38:15;;;;;;;7.00;2.45;;;;;;;5.08;79.32;101512.59;5096517;28;20028;-41
2021/03/27 04:41:14;;;;;;;4.72;2.20;;;;;;;5.15;78.77;101518.06;5096865;28;20042;-41
2021/03/27 04:43:59;;;;;;;7.50;3.25;;;;;;;5.13;79.92;101509.38;5095917;28;20024;-41
2021/03/27 04:46:41;;;;;;;6.15;2.88;;;;;;;5.11;79.94;101509.53;5095840;28;20024;-41
2021/03/27 04:49:44;;;;;;;9.23;3.55;;;;;;;5.11;80.19;101522.94;5096066;28;20391;-42
2021/03/27 04:52:41;;;;;;;8.85;3.42;;;;;;;5.06;80.19;101524.47;5095753;28;20361;-41
2021/03/27 04:55:09;;;;;;;6.95;3.40;;;;;;;5.06;80.94;101535.19;5095940;28;20028;-41
2021/03/27 04:58:02;;;;;;;8.52;3.70;;;;;;;5.04;81.17;101540.75;5096349;28;20039;-41
2021/03/27 05:00:43;;;;;;;8.77;3.85;;;;;;;5.02;81.02;101539.25;5096355;28;20024;-41
2021/03/27 05:03:28;;;;;;;8.27;3.75;;;;;;;5.04;81.26;101537.25;5096272;28;20035;-41
2021/03/27 05:05:54;;;;;;;10.85;3.92;;;;;;;4.99;80.84;101536.94;5095649;28;20157;-41
2021/03/27 05:08:56;;;;;;;10.80;3.60;;;;;;;5.05;80.81;101538.91;5096427;28;20454;-41
2021/03/27 05:11:46;;;;;;;10.27;3.60;;;;;;;5.02;81.07;101533.88;5095115;28;20020;-42
2021/03/27 05:14:21;;;;;;;11.50;3.20;;;;;;;5.03;81.39;101536.41;5096093;28;20032;-41
2021/03/27 05:17:02;;;;;;;12.55;4.25;;;;;;;5.05;81.03;101546.94;5095797;28;20036;-41
2021/03/27 05:19:37;;;;;;;10.45;3.85;;;;;;;5.09;81.09;101540.22;5095413;28;20106;-41
2021/03/27 05:22:23;;;;;;;11.75;4.90;;;;;;;5.06;81.46;101540.56;5096235;28;20082;-41
2021/03/27 05:25:02;;;;;;;14.38;4.63;;;;;;;5.05;81.69;101542.41;5095629;28;20119;-41
2021/03/27 05:27:30;;;;;;;13.60;5.10;;;;;;;5.07;81.73;101547.59;5095548;28;20047;-41
2021/03/27 05:30:19;;;;;;;14.65;3.60;;;;;;;5.09;82.01;101548.25;5095561;28;20468;-41
2021/03/27 05:32:57;;;;;;;15.10;3.92;;;;;;;5.08;82.26;101574.25;5095575;28;20063;-41
2021/03/27 05:35:45;;;;;;;11.82;3.38;;;;;;;5.09;81.92;101592.00;5095159;28;20024;-41
2021/03/27 05:38:13;;;;;;;8.20;2.20;;;;;;;5.01;80.83;101612.63;5095186;28;20028;-41
2021/03/27 05:41:03;;;;;;;6.82;1.63;;;;;;;4.91;81.03;101656.56;5095013;28;20499;-41
2021/03/27 05:43:47;;;;;;;4.53;1.52;;;;;;;4.57;80.42;101653.34;5094801;28;20028;-41
2021/03/27 05:46:27;;;;;;;4.07;1.27;;;;;;;4.38;81.44;101657.22;5094956;28;20024;-41
2021/03/27 05:49:23;;;;;;;3.35;1.17;;;;;;;4.23;81.28;101656.25;5094584;28;20028;-41
2021/03/27 05:52:27;;;;;;;4.53;1.00;;;;;;;4.17;81.29;101652.41;5094923;28;20028;-41
2021/03/27 05:55:19;;;;;;;3.38;1.13;;;;;;;4.13;81.26;101651.91;5052149;28;20076;-41
2021/03/27 05:58:26;;;;;;;4.97;1.52;;;;;;;4.03;81.61;101653.94;5052753;28;20061;-41
2021/03/27 06:01:20;;;;;;;3.78;1.30;;;;;;;4.00;82.21;101666.81;5052208;28;20548;-41
2021/03/27 06:04:17;;;;;;;5.90;1.52;;;;;;;3.98;82.49;101674.19;5052599;28;20044;-42
2021/03/27 06:07:14;;;;;;;3.10;1.10;;;;;;;3.96;82.28;101686.91;5052511;28;20080;-41
2021/03/27 06:10:30;;;;;;;5.15;1.70;;;;;;;3.97;82.37;101697.44;5051835;28;20060;-41
2021/03/27 06:13:32;;;;;;;5.97;1.63;;;;;;;3.97;82.05;101696.59;5051306;28;20041;-41
2021/03/27 06:16:36;;;;;;;5.00;1.63;;;;;;;3.93;82.82;101689.91;5052402;28;20029;-41
2021/03/27 06:19:23;;;;;;;6.53;1.92;;;;;;;3.91;82.49;101695.44;4992905;28;20038;-41
2021/03/27 06:22:09;;;;;;;10.75;2.03;;;;;;;3.94;82.58;101696.91;4993100;28;20352;-41
2021/03/27 06:25:04;;;;;;;10.68;1.88;;;;;;;3.91;83.06;101689.25;4992687;28;20039;-41
2021/03/27 06:28:11;;;;;;;6.50;1.67;;;;;;;3.88;82.61;101696.59;4992886;28;20387;-41
2021/03/27 06:30:42;;;;;;;6.68;1.70;;;;;;;3.82;83.41;101701.78;4994899;28;20151;-41
2021/03/27 06:33:10;;;;;;;7.82;1.60;;;;;;;3.84;83.02;101702.44;5032183;28;20418;-41
2021/03/27 06:35:47;;;;;;;5.90;1.80;;;;;;;3.82;83.86;101709.81;5031943;28;20041;-41
2021/03/27 06:38:40;;;;;;;5.43;1.38;;;;;;;3.82;83.45;101713.31;5031507;28;20064;-41
2021/03/27 06:41:30;;;;;;;6.40;1.50;;;;;;;3.74;83.84;101715.97;5031432;28;20041;-41
2021/03/27 06:44:33;;;;;;;5.63;1.65;;;;;;;3.78;83.45;101729.84;5032210;28;20087;-41
2021/03/27 06:47:27;;;;;;;6.13;1.50;;;;;;;3.76;84.15;101730.03;4973172;28;20031;-41
2021/03/27 06:50:06;;;;;;;5.50;1.75;;;;;;;3.82;83.69;101734.72;4972608;28;20403;-41
2021/03/27 06:52:44;;;;;;;6.15;1.95;;;;;;;4.00;83.76;101731.91;4972976;28;20026;-41
2021/03/27 06:55:30;;;;;;;6.07;1.70;;;;;;;4.13;83.81;101740.25;5018171;28;20103;-41
2021/03/27 06:58:10;;;;;;;5.30;1.70;;;;;;;4.20;82.79;101734.22;5031598;28;20030;-41
2021/03/27 07:01:03;;;;;;;6.38;2.00;;;;;;;4.28;83.46;101742.25;5031472;28;20060;-41
2021/03/27 07:03:47;;;;;;;8.48;1.70;;;;;;;4.45;83.25;101745.78;5031683;28;20060;-41
2021/03/27 07:06:43;;;;;;;5.22;1.52;;;;;;;4.57;82.33;101749.78;5014874;28;20076;-41
2021/03/27 07:09:46;;;;;;;7.03;1.40;;;;;;;4.53;81.73;101754.63;5031298;28;20512;-41
2021/03/27 07:12:36;;;;;;;8.60;1.98;;;;;;;4.42;82.14;101763.00;5031685;28;20025;-41
2021/03/27 07:15:35;;;;;;;5.72;1.65;;;;;;;4.43;82.58;101766.53;5031258;28;20435;-41
2021/03/27 07:18:31;;;;;;;5.88;1.77;;;;;;;4.57;82.25;101766.69;5031051;28;20494;-41
2021/03/27 07:21:05;;;;;;;7.93;1.77;;;;;;;4.70;82.79;101771.53;5062577;28;20040;-41
2021/03/27 07:23:44;;;;;;;8.82;2.00;;;;;;;4.94;81.95;101772.50;5094350;28;20051;-41
2021/03/27 07:26:15;;;;;;;8.30;2.10;;;;;;;5.13;81.39;101775.63;5092438;28;20039;-42
2021/03/27 07:28:49;;;;;;;6.30;1.70;;;;;;;5.28;81.99;101780.28;5094011;28;20415;-41
2021/03/27 07:31:42;;;;;;;8.23;2.20;;;;;;;5.29;81.38;101782.78;5093503;28;20380;-41
2021/03/27 07:34:28;;;;;;;9.57;2.60;;;;;;;5.20;80.96;101785.66;5093996;28;20032;-41
2021/03/27 07:37:00;;;;;;;8.20;2.07;;;;;;;5.12;80.65;101800.78;5093471;28;20036;-41
2021/03/27 07:39:40;;;;;;;8.25;2.08;;;;;;;5.05;80.94;101806.97;5093385;28;20024;-41
2021/03/27 07:42:24;;;;;;;11.25;2.40;;;;;;;5.09;80.97;101819.03;5093418;28;20465;-41
2021/03/27 07:45:07;;;;;;;13.30;2.80;;;;;;;5.01;80.77;101817.19;5093887;28;20028;-41
2021/03/27 07:47:36;;;;;;;13.57;2.60;;;;;;;5.04;81.03;101832.13;5093890;28;20488;-41
2021/03/27 07:50:16;;;;;;;11.32;3.10;;;;;;;5.02;81.01;101840.31;5094047;28;20028;-41
2021/03/27 07:52:41;;;;;;;8.70;3.00;;;;;;;4.91;77.93;101846.03;5093220;28;20040;-41
2021/03/27 07:55:25;;;;;;;4.60;1.60;;;;;;;4.79;75.82;101845.56;5093285;28;20053;-41
2021/03/27 07:58:14;;;;;;;3.08;1.13;;;;;;;4.62;75.71;101850.06;5093472;28;20043;-41
2021/03/27 08:00:58;;;;;;;6.88;1.52;;;;;;;4.54;75.32;101867.97;5093954;28;20032;-40
2021/03/27 08:03:28;;;;;;;8.48;1.70;;;;;;;4.39;75.27;101882.03;5097587;28;20028;-40
2021/03/27 08:06:07;;;;;;;5.78;1.30;;;;;;;4.20;74.72;101876.13;5096925;28;20107;-40
2021/03/27 08:08:35;;;;;;;3.85;1.50;;;;;;;3.94;75.45;101885.09;5096471;28;20425;-48
2021/03/27 08:11:24;;;;;;;5.80;1.70;;;;;;;3.79;75.68;101890.22;5096850;28;20028;-41
2021/03/27 08:14:20;;;;;;;5.90;1.60;;;;;;;3.64;76.37;101885.63;5097349;28;20036;-41
2021/03/27 08:17:25;;;;;;;5.18;1.67;;;;;;;3.55;76.36;101900.81;5096671;28;20028;-40
2021/03/27 08:20:02;;;;;;;6.50;1.00;;;;;;;3.36;76.99;101900.03;5096912;28;20062;-40
2021/03/27 08:22:39;;;;;;;;;;;;;;;3.45;76.76;101906.25;5097139;28;20491;-41
2021/03/27 08:25:16;;;;;;;19.98;2.95;;;;;;;3.26;77.48;101909.97;5097111;28;20245;-41
2021/03/27 08:28:08;;;;;;;6.65;1.98;;;;;;;3.16;77.83;101905.75;5096807;28;20044;-40
2021/03/27 08:31:04;;;;;;;6.95;1.85;;;;;;;3.13;77.87;101909.59;5096966;28;20032;-41
2021/03/27 08:33:57;;;;;;;5.13;1.30;;;;;;;3.20;78.13;101913.28;5096624;28;20031;-41
2021/03/27 08:36:44;;;;;;;6.45;1.52;;;;;;;3.30;78.64;101926.56;5096810;28;20448;-41
2021/03/27 08:39:37;;;;;;;8.40;1.35;;;;;;;3.48;78.22;101922.00;5096580;28;20499;-41
2021/03/27 08:42:16;;;;;;;12.60;1.67;;;;;;;3.76;78.18;101911.97;5095941;28;20141;-41
2021/03/27 08:44:52;;;;;;;7.80;2.05;;;;;;;3.92;77.24;101918.38;5096948;28;20103;-39
2021/03/27 08:48:01;;;;;;;9.57;2.00;;;;;;;4.09;78.42;101917.41;5096784;28;20373;-39
2021/03/27 08:50:44;;;;;;;8.40;1.75;;;;;;;4.39;78.70;101927.56;5096579;28;20035;-39
2021/03/27 08:53:31;;;;;;;11.80;3.85;;;;;;;4.58;78.70;101920.22;5095970;28;20036;-41
2021/03/27 08:56:11;;;;;;;14.80;3.10;;;;;;;4.80;79.19;101929.47;5096277;28;20039;-39
2021/03/27 08:59:04;;;;;;;11.00;2.88;;;;;;;5.02;78.36;101927.94;5095789;28;20274;-39
2021/03/27 09:01:41;;;;;;;11.18;2.42;;;;;;;5.19;78.53;101923.44;5096167;28;20035;-40
2021/03/27 09:04:34;;;;;;;9.27;2.42;;;;;;;5.44;78.23;101935.78;5095541;28;20150;-40
2021/03/27 09:07:30;;;;;;;11.57;3.20;;;;;;;5.65;77.95;101928.00;5095958;28;20031;-41
2021/03/27 09:10:16;;;;;;;13.10;3.22;;;;;;;5.90;77.69;101931.47;5096058;28;20024;-41
2021/03/27 09:12:52;;;;;;;13.68;3.38;;;;;;;6.11;74.81;101933.59;5095038;28;20024;-41
2021/03/27 09:15:55;;;;;;;12.73;2.80;;;;;;;5.99;74.33;101950.25;5096441;28;20028;-41
2021/03/27 09:19:05;;;;;;;9.15;3.42;;;;;;;5.64;74.99;101973.81;5095174;28;20028;-41
2021/03/27 09:21:37;;;;;;;11.15;4.00;;;;;;;5.18;75.11;101962.81;5052926;28;20047;-40
2021/03/27 09:24:33;;;;;;;13.88;3.75;;;;;;;5.07;76.26;101980.06;5053118;28;20033;-41
2021/03/27 09:27:45;;;;;;;12.65;3.53;;;;;;;5.11;76.77;101962.63;5053011;28;20071;-40
2021/03/27 09:30:10;;;;;;;10.70;3.20;;;;;;;5.14;77.12;101985.59;5053063;28;20056;-40
2021/03/27 09:32:39;;;;;;;13.83;2.60;;;;;;;5.18;75.55;101986.13;5052670;28;20500;-41
2021/03/27 09:35:25;;;;;;;15.43;2.88;;;;;;;5.17;74.33;101995.97;5052995;28;20131;-40
2021/03/27 09:38:03;;;;;;;15.25;3.28;;;;;;;5.22;74.73;101990.97;5053012;28;20171;-40
2021/03/27 09:40:50;;;;;;;14.00;3.42;;;;;;;5.30;75.50;101995.47;5052768;28;20033;-40
2021/03/27 09:43:44;;;;;;;9.68;2.08;;;;;;;5.56;73.44;102004.19;5053005;28;20029;-40
2021/03/27 09:46:28;;;;;;;16.02;4.10;;;;;;;5.92;73.43;102004.66;5052771;28;20124;-40
2021/03/27 09:49:27;;;;;;;10.93;2.50;;;;;;;6.28;71.63;102006.88;5052622;28;20033;-40
2021/03/27 09:52:37;;;;;;;14.68;2.35;;;;;;;6.69;70.59;102001.31;5052785;28;20159;-40
2021/03/27 09:55:15;;;;;;;11.98;2.67;;;;;;;6.97;67.97;101996.22;4993202;28;20128;-40
2021/03/27 09:57:52;;;;;;;11.18;1.98;;;;;;;7.16;64.78;102011.88;5002726;28;20064;-40
2021/03/27 10:00:24;;;;;;;9.18;1.92;;;;;;;7.35;66.59;102015.94;5032727;28;20413;-41
2021/03/27 10:03:35;;;;;;;10.15;2.40;;;;;;;7.52;63.36;102013.13;5032145;28;20041;-40
2021/03/27 10:06:28;;;;;;;9.00;2.38;;;;;;;7.66;62.99;102015.84;5032663;28;20454;-40
2021/03/27 10:09:17;;;;;;;7.78;1.92;;;;;;;7.69;63.75;102020.84;5032067;28;20437;-40
2021/03/27 10:11:46;;;;;;;11.82;2.58;;;;;;;7.51;63.51;102032.97;5032637;28;20034;-41
2021/03/27 10:14:20;;;;;;;8.70;2.28;;;;;;;7.40;60.71;102036.94;5032442;28;20034;-41
2021/03/27 10:17:00;;;;;;;12.93;2.88;;;;;;;7.42;60.86;102054.59;5032206;28;20124;-40
2021/03/27 10:19:31;;;;;;;8.32;1.95;;;;;;;7.45;59.38;102048.00;5032676;28;20037;-40
2021/03/27 10:21:58;;;;;;;8.70;2.33;;;;;;;7.66;59.55;102058.94;5031882;28;20029;-40
2021/03/27 10:24:24;;;;;;;8.57;2.33;;;;;;;7.79;58.60;102052.91;5032092;28;20049;-41
2021/03/27 10:27:15;;;;;;;6.43;1.67;;;;;;;8.00;59.26;102050.34;5031471;28;20065;-41
2021/03/27 10:30:04;;;;;;;10.13;1.83;;;;;;;8.10;58.78;102058.16;5032243;28;20132;-41
2021/03/27 10:32:29;;;;;;;6.18;2.03;;;;;;;8.17;58.67;102074.41;5093923;28;20032;-41
2021/03/27 10:35:09;;;;;;;6.33;1.83;;;;;;;8.33;58.23;102081.47;5093836;28;20115;-41
2021/03/27 10:37:52;;;;;;;5.72;1.58;;;;;;;8.24;53.65;102094.19;5094309;28;20043;-40
2021/03/27 10:40:47;;;;;;;8.85;1.95;;;;;;;8.06;53.46;102104.50;5093983;28;20031;-41
2021/03/27 10:43:12;;;;;;;5.80;1.65;;;;;;;8.07;53.20;102106.19;5094556;28;20019;-41
2021/03/27 10:45:58;;;;;;;6.23;1.97;;;;;;;8.08;53.10;102105.97;5094234;28;20080;-40
2021/03/27 10:48:41;;;;;;;8.77;1.70;;;;;;;7.98;54.23;102108.09;5086742;28;20036;-41
2021/03/27 10:51:06;;;;;;;6.88;2.08;;;;;;;7.92;54.44;102116.91;5094097;28;20039;-41
2021/03/27 10:53:59;;;;;;;15.20;2.83;;;;;;;7.77;54.48;102114.19;5093894;28;20032;-41
2021/03/27 10:57:15;;;;;;;16.30;2.65;;;;;;;7.95;54.10;102119.22;5093874;28;20456;-41
2021/03/27 10:59:46;;;;;;;12.50;2.20;;;;;;;7.99;53.84;102134.00;5051754;28;20111;-41
2021/03/27 11:02:56;;;;;;;9.80;2.38;;;;;;;8.03;54.34;102129.94;5034411;28;20118;-41
2021/03/27 11:05:37;;;;;;;8.18;1.90;;;;;;;8.16;54.18;102132.84;5051199;28;20033;-40
2021/03/27 11:08:44;;;;;;;9.48;1.85;;;;;;;8.55;55.17;102136.34;5050809;28;20040;-41
2021/03/27 11:11:18;;;;;;;7.93;2.20;;;;;;;8.54;52.86;102145.44;4992275;28;20117;-41
2021/03/27 11:13:44;;;;;;;7.97;2.25;;;;;;;8.27;52.14;102151.25;4991695;28;20162;-41
2021/03/27 11:16:27;;;;;;;7.80;1.73;;;;;;;8.04;53.50;102163.09;4991565;28;20568;-41
2021/03/27 11:19:11;;;;;;;11.57;1.90;;;;;;;7.92;54.67;102162.72;4991487;28;20143;-40
2021/03/27 11:22:11;;;;;;;6.65;1.80;;;;;;;7.93;53.18;102167.91;4991772;28;20034;-40
2021/03/27 11:25:13;;;;;;;16.05;2.78;;;;;;;8.22;52.52;102175.22;4991647;28;20518;-41
2021/03/27 11:27:51;;;;;;;6.38;1.67;;;;;;;8.27;50.04;102174.69;4991270;28;20058;-41
2021/03/27 11:30:37;;;;;;;8.30;2.40;;;;;;;8.32;51.04;102184.91;4991861;28;20084;-41
2021/03/27 11:33:11;;;;;;;4.70;1.67;;;;;;;8.35;49.91;102181.84;4992345;28;20030;-41
2021/03/27 11:35:44;;;;;;;6.30;1.70;;;;;;;8.34;50.07;102194.47;5053031;28;20044;-41
2021/03/27 11:39:10;;;;;;;6.32;1.80;;;;;;;8.19;50.38;102188.22;5075158;28;20037;-41
2021/03/27 11:41:53;;;;;;;5.15;1.65;;;;;;;8.06;49.69;102188.03;5015423;28;20096;-41
2021/03/27 11:44:24;;;;;;;8.07;1.70;;;;;;;8.09;50.60;102199.25;5015639;28;20441;-41
2021/03/27 11:46:58;;;;;;;7.60;1.75;;;;;;;8.35;50.72;102206.13;5015768;28;20096;-41
2021/03/27 11:49:48;;;;;;;7.55;1.90;;;;;;;8.63;49.93;102209.03;5014957;28;20034;-41
2021/03/27 11:52:19;;;;;;;8.18;2.08;;;;;;;8.80;49.14;102201.63;5014962;28;20069;-41
2021/03/27 11:55:15;;;;;;;7.43;1.63;;;;;;;8.98;49.16;102211.03;5014838;28;20036;-41
2021/03/27 11:57:55;;;;;;;6.53;1.67;;;;;;;8.87;49.66;102213.34;5015138;28;20037;-41
2021/03/27 12:03:50;;;;;;;5.00;1.45;;;;;;;8.66;50.94;102230.25;5015508;28;20123;-41
2021/03/27 12:06:27;;;;;;;7.25;1.50;;;;;;;8.47;49.99;102223.53;5015035;28;20426;-41
2021/03/27 12:09:00;;;;;;;10.48;2.38;;;;;;;8.34;50.44;102237.59;5014641;28;20068;-40
2021/03/27 12:11:52;;;;;;;6.80;1.80;;;;;;;8.42;51.10;102247.50;5037327;28;20048;-41
2021/03/27 12:14:51;;;;;;;7.60;1.75;;;;;;;8.77;50.70;102235.19;5090875;28;20419;-41
2021/03/27 12:17:32;;;;;;;9.35;2.22;;;;;;;8.98;49.29;102245.25;5096478;28;20051;-41
2021/03/27 12:20:16;;;;;;;6.85;1.67;;;;;;;9.13;49.74;102273.09;5097214;28;20107;-41
2021/03/27 12:22:52;;;;;;;7.15;1.58;;;;;;;9.17;49.41;102247.38;5097486;28;20027;-41
2021/03/27 12:25:22;;;;;;;12.10;2.63;;;;;;;9.32;50.26;102268.97;5097391;28;20024;-41
2021/03/27 12:28:24;;;;;;;7.90;2.22;;;;;;;9.23;47.74;102262.84;5096860;28;20131;-41
2021/03/27 12:31:33;;;;;;;12.65;2.00;;;;;;;9.27;48.59;102260.56;5054014;28;20095;-41
2021/03/27 12:34:01;;;;;;;;;;;;;;;9.17;50.09;102268.97;5055072;28;20028;-41
2021/03/27 12:36:38;;;;;;;4.93;1.60;;;;;;;8.87;51.02;102272.69;5070439;28;19924;-41
2021/03/27 12:39:26;;;;;;;8.40;1.90;;;;;;;8.95;51.02;102262.66;5054032;28;20414;-41
2021/03/27 12:42:03;;;;;;;11.23;2.13;;;;;;;9.25;52.04;102249.97;5053844;28;20043;-41
2021/03/27 12:44:42;;;;;;;6.28;1.95;;;;;;;9.47;51.77;102277.88;5053900;28;20086;-41
2021/03/27 12:47:37;;;;;;;8.48;2.15;;;;;;;9.75;50.78;102267.19;5052431;28;20071;-41
2021/03/27 12:50:20;;;;;;;7.85;2.28;;;;;;;9.75;50.96;102291.50;4994419;28;20046;-42